Time;durP1;ratioP1;P1;durP2;ratioP2;P2;SDS_P1;SDS_P2;PMS_P1;PMS_P2;Temp;Humidity;BMP_temperature;BMP_pressure;BME280_temperature;BME280_humidity;BME280_pressure;Samples;Min_cycle;Max_cycle;Signal;HPM_P1;HPM_P2
2022/12/05 00:07:48;;;;;;;39.50;20.23;;;;;;;2.03;79.46;100520.84;30731534;28;97716;-71
2022/12/05 00:22:48;;;;;;;42.80;21.05;;;;;;;2.02;79.65;100520.03;30730463;28;97542;-71
2022/12/05 00:37:49;;;;;;;35.63;19.38;;;;;;;2.02;79.80;100499.00;30741417;28;96664;-71
2022/12/05 00:52:49;;;;;;;39.13;22.13;;;;;;;1.98;79.98;100521.19;30749398;28;96657;-72
2022/12/05 01:07:49;;;;;;;37.90;19.85;;;;;;;1.99;80.24;100522.84;30748880;28;97545;-73
2022/12/05 01:22:50;;;;;;;38.25;18.70;;;;;;;2.05;80.54;100515.47;30746202;28;96941;-72
2022/12/05 01:37:51;;;;;;;39.10;20.92;;;;;;;2.06;80.42;100494.34;30745553;28;97761;-72
2022/12/05 01:52:51;;;;;;;38.45;20.08;;;;;;;2.06;80.99;100496.16;30743100;28;96651;-72
2022/12/05 02:07:52;;;;;;;35.40;19.92;;;;;;;2.10;80.99;100503.69;30741944;28;97275;-73
2022/12/05 02:23:26;;;;;;;47.72;22.15;;;;;;;2.14;80.52;100485.94;30740689;28;97184;-74
2022/12/05 02:38:47;;;;;;;40.97;20.87;;;;;;;2.14;80.68;100485.94;30739091;28;97519;-73
2022/12/05 02:53:49;;;;;;;41.92;23.40;;;;;;;2.12;80.52;100479.94;30737793;28;96703;-69
2022/12/05 03:09:08;;;;;;;41.67;21.60;;;;;;;2.03;80.71;100470.91;30735903;28;96755;-69
2022/12/05 03:24:13;;;;;;;39.25;21.83;;;;;;;1.99;80.77;100472.09;30734953;28;96719;-69
2022/12/05 03:39:26;;;;;;;36.57;19.37;;;;;;;1.96;80.28;100462.63;30733193;28;98361;-72
2022/12/05 03:54:37;;;;;;;38.75;18.35;;;;;;;1.91;80.88;100448.97;30732270;28;96719;-69
2022/12/05 04:09:48;;;;;;;33.95;18.05;;;;;;;1.88;81.03;100456.25;30737610;28;96788;-73
2022/12/05 04:40:20;;;;;;;27.73;16.88;;;;;;;1.78;80.62;100441.13;30751663;28;97617;-71
2022/12/05 04:55:28;;;;;;;33.78;17.98;;;;;;;1.81;80.98;100461.91;30747310;28;96992;-67
2022/12/05 05:10:38;;;;;;;36.10;17.90;;;;;;;1.85;80.62;100473.06;30743990;28;96801;-68
2022/12/05 05:25:38;;;;;;;35.65;19.08;;;;;;;1.91;80.41;100477.88;30740535;28;97401;-68
2022/12/05 05:40:38;;;;;;;31.00;16.65;;;;;;;1.90;80.39;100485.84;30739771;28;96766;-69
2022/12/05 05:55:40;;;;;;;39.47;19.73;;;;;;;1.87;80.39;100492.16;30739034;28;96755;-69
2022/12/05 06:10:40;;;;;;;43.80;20.23;;;;;;;1.87;80.52;100481.66;30736118;28;97442;-68
2022/12/05 06:25:53;;;;;;;35.90;17.95;;;;;;;1.85;80.47;100489.66;30737611;28;97535;-68
2022/12/05 06:40:53;;;;;;;31.50;18.05;;;;;;;1.89;80.66;100479.78;30735151;28;97454;-69
2022/12/05 06:55:58;;;;;;;38.08;18.83;;;;;;;1.91;80.37;100485.75;30734009;28;96941;-70
2022/12/05 07:10:59;;;;;;;29.67;15.48;;;;;;;1.97;80.63;100461.69;30729917;28;97477;-69
2022/12/05 07:26:07;;;;;;;30.90;16.15;;;;;;;2.00;80.23;100476.41;30731216;28;96785;-67
2022/12/05 07:41:18;;;;;;;32.10;16.70;;;;;;;2.05;79.96;100476.91;30730915;28;98665;-68
2022/12/05 07:56:19;;;;;;;33.58;16.20;;;;;;;2.18;80.33;100505.78;30729306;28;96701;-67
2022/12/05 08:11:29;;;;;;;35.45;18.20;;;;;;;2.30;80.17;100497.03;30728615;28;96769;-70
2022/12/05 08:26:30;;;;;;;37.70;19.00;;;;;;;2.49;80.04;100509.72;30725037;28;97179;-66
2022/12/05 08:41:31;;;;;;;42.30;18.77;;;;;;;2.47;79.82;100521.28;30724616;28;96934;-66
2022/12/05 08:56:32;;;;;;;43.58;20.48;;;;;;;2.49;79.97;100514.13;30731216;28;96751;-67
2022/12/05 09:11:36;;;;;;;32.45;18.95;;;;;;;2.65;79.78;100503.34;30742330;28;96937;-66
2022/12/05 09:26:36;;;;;;;33.17;18.80;;;;;;;2.73;79.13;100497.53;30740956;28;97051;-67
2022/12/05 09:42:07;;;;;;;43.65;19.33;;;;;;;2.75;78.92;100493.84;30740961;28;97382;-67
2022/12/05 09:57:10;;;;;;;38.65;20.98;;;;;;;2.83;79.31;100478.31;30741983;28;96671;-68
2022/12/05 10:12:42;;;;;;;40.50;20.27;;;;;;;2.94;78.70;100474.91;30738125;28;97654;-69
2022/12/05 10:27:59;;;;;;;43.38;23.48;;;;;;;3.03;78.93;100468.09;30738117;28;96823;-69
2022/12/05 10:42:59;;;;;;;46.10;24.95;;;;;;;3.05;78.76;100463.56;30733147;28;97433;-69
2022/12/05 10:58:15;;;;;;;47.10;24.40;;;;;;;3.10;78.88;100471.94;30733241;28;96915;-76
2022/12/05 11:13:24;;;;;;;53.92;24.67;;;;;;;3.22;78.44;100462.28;30734334;28;96813;-73
2022/12/05 11:28:36;;;;;;;45.28;22.85;;;;;;;3.35;78.59;100468.31;30731909;28;97527;-72
2022/12/05 11:44:14;;;;;;;46.38;22.35;;;;;;;3.50;78.50;100450.50;30730511;28;97427;-67
2022/12/05 11:59:36;;;;;;;44.95;24.10;;;;;;;3.61;78.23;100439.13;30728331;28;96853;-68
2022/12/05 12:14:42;;;;;;;53.92;24.80;;;;;;;3.69;78.01;100430.63;30727970;28;96968;-68
2022/12/05 12:30:05;;;;;;;50.97;25.35;;;;;;;3.73;78.23;100427.63;30733131;28;97412;-66
2022/12/05 12:45:19;;;;;;;50.78;26.10;;;;;;;3.76;77.81;100426.56;30746919;28;96668;-67
2022/12/05 13:00:34;;;;;;;51.10;25.47;;;;;;;3.82;77.97;100418.16;30745592;28;96825;-68
2022/12/05 13:15:39;;;;;;;;;;;;;;;3.87;78.16;100433.63;30744598;28;96808;-68
2022/12/05 13:30:56;;;;;;;54.23;24.97;;;;;;;3.84;78.03;100444.38;30742402;28;96684;-67
2022/12/05 13:46:06;;;;;;;49.33;26.90;;;;;;;3.89;78.05;100444.88;30738528;28;96987;-67
2022/12/05 14:01:25;;;;;;;44.60;23.25;;;;;;;3.98;78.06;100436.25;30740970;28;96970;-67
2022/12/05 14:16:25;;;;;;;51.67;24.92;;;;;;;4.01;77.96;100441.28;30738328;28;97188;-66
2022/12/05 14:32:07;;;;;;;43.40;23.40;;;;;;;3.99;78.08;100430.03;30736256;28;97025;-67
2022/12/05 14:47:24;;;;;;;51.58;24.55;;;;;;;3.94;77.97;100431.31;30735850;28;96710;-70
2022/12/05 15:02:41;;;;;;;48.20;27.30;;;;;;;3.92;78.31;100436.72;30735102;28;96674;-68
2022/12/05 15:17:47;;;;;;;55.08;28.73;;;;;;;3.95;78.25;100435.63;30732844;28;97543;-67
2022/12/05 15:32:48;;;;;;;54.05;28.50;;;;;;;4.04;78.32;100432.28;30730901;28;96593;-67
2022/12/05 15:47:55;;;;;;;56.03;30.30;;;;;;;4.04;78.41;100419.09;30730752;28;97130;-68
2022/12/05 16:03:07;;;;;;;57.25;31.92;;;;;;;4.06;78.31;100422.47;30732826;28;96920;-68
2022/12/05 16:18:24;;;;;;;63.58;30.25;;;;;;;3.95;78.39;100433.00;30748961;28;96630;-72
2022/12/05 16:33:26;;;;;;;56.08;31.33;;;;;;;3.98;78.29;100446.78;30749109;28;96709;-68
2022/12/05 16:48:28;;;;;;;64.22;33.15;;;;;;;3.94;78.82;100455.03;30747497;28;97346;-68
2022/12/05 17:03:30;;;;;;;58.22;30.25;;;;;;;4.11;79.28;100456.38;30745379;28;96768;-68
2022/12/05 17:18:30;;;;;;;48.35;23.58;;;;;;;4.20;79.18;100445.91;30743547;28;96696;-73
2022/12/05 17:33:31;;;;;;;48.50;26.40;;;;;;;4.40;79.52;100457.50;30743159;28;96686;-69
2022/12/05 17:48:32;;;;;;;48.45;27.42;;;;;;;4.43;79.11;100455.56;30739594;28;97566;-67
2022/12/05 18:03:32;;;;;;;43.78;24.88;;;;;;;4.36;79.31;100450.81;30735475;28;97374;-68
2022/12/05 18:18:32;;;;;;;43.30;23.83;;;;;;;4.43;79.30;100450.31;30737275;28;97429;-68
2022/12/05 18:33:33;;;;;;;44.47;21.08;;;;;;;4.49;79.61;100450.63;30735672;28;97282;-74
2022/12/05 18:48:34;;;;;;;37.67;21.30;;;;;;;4.59;79.32;100445.44;30736303;28;96730;-67
2022/12/05 19:03:35;;;;;;;40.85;22.90;;;;;;;4.57;79.32;100431.56;30733095;28;96674;-68
2022/12/05 19:18:36;;;;;;;36.53;20.63;;;;;;;4.63;79.65;100433.69;30731531;28;96825;-67
2022/12/05 19:33:42;;;;;;;34.58;19.33;;;;;;;4.58;79.16;100443.81;30731280;28;97027;-67
2022/12/05 19:48:42;;;;;;;39.55;23.40;;;;;;;4.56;79.41;100435.16;30729904;28;96787;-67
2022/12/05 20:03:46;;;;;;;43.10;22.17;;;;;;;4.53;79.13;100427.50;30730254;28;96616;-70
2022/12/05 20:18:48;;;;;;;46.90;23.47;;;;;;;4.63;79.37;100438.97;30729951;28;96748;-68
2022/12/05 20:33:50;;;;;;;58.45;29.17;;;;;;;4.64;79.29;100429.25;30727976;28;96699;-69
2022/12/05 20:48:52;;;;;;;56.67;28.30;;;;;;;4.67;79.44;100435.09;30728278;28;97025;-67
2022/12/05 21:03:53;;;;;;;71.30;31.88;;;;;;;4.61;79.51;100435.63;30747410;28;96699;-67
2022/12/05 21:18:55;;;;;;;58.85;27.92;;;;;;;4.55;79.52;100428.19;30746397;28;97078;-68
2022/12/05 21:34:01;;;;;;;48.08;24.52;;;;;;;4.50;79.46;100415.38;30745470;28;97509;-67
2022/12/05 21:49:01;;;;;;;50.83;23.92;;;;;;;4.54;79.47;100408.06;30743302;28;97443;-68
2022/12/05 22:04:02;;;;;;;52.30;25.00;;;;;;;4.47;79.35;100399.81;30740367;28;97337;-67
2022/12/05 22:19:02;;;;;;;36.35;20.15;;;;;;;4.36;79.40;100392.78;30739244;28;96674;-68
2022/12/05 22:34:03;;;;;;;43.80;21.92;;;;;;;4.43;79.79;100392.25;30738960;28;96847;-67
2022/12/05 22:49:04;;;;;;;37.08;17.73;;;;;;;4.45;79.72;100377.16;30738925;28;96746;-68
2022/12/05 23:04:08;;;;;;;35.95;20.00;;;;;;;4.48;79.71;100369.81;30737683;28;96741;-68
2022/12/05 23:19:09;;;;;;;35.10;18.17;;;;;;;4.49;79.49;100345.13;30736074;28;96506;-68
2022/12/05 23:34:10;;;;;;;41.67;20.55;;;;;;;4.49;79.76;100320.53;30735503;28;96721;-69
2022/12/05 23:49:11;;;;;;;43.20;23.48;;;;;;;4.45;79.46;100295.38;30734155;28;96703;-69
